Time;durP1;ratioP1;P1;durP2;ratioP2;P2;SDS_P1;SDS_P2;PMS_P1;PMS_P2;Temp;Humidity;BMP_temperature;BMP_pressure;BME280_temperature;BME280_humidity;BME280_pressure;Samples;Min_cycle;Max_cycle;Signal;HPM_P1;HPM_P2
2022/07/18 00:00:19;;;;;;;3.90;1.40;;;17.50;78.30;;;;;;4983834;28;20480;-57
2022/07/18 00:02:45;;;;;;;4.13;1.25;;;17.50;79.10;;;;;;4981282;28;20531;-53
2022/07/18 00:05:10;;;;;;;1.25;0.90;;;17.40;78.80;;;;;;4987896;28;20035;-55
2022/07/18 00:07:36;;;;;;;3.17;0.75;;;17.40;79.00;;;;;;4977569;28;20044;-56
2022/07/18 00:10:02;;;;;;;2.80;1.00;;;17.40;79.10;;;;;;4996065;28;20427;-57
2022/07/18 00:12:28;;;;;;;4.30;1.50;;;17.40;79.50;;;;;;4992160;28;20032;-56
2022/07/18 00:14:53;;;;;;;6.75;1.42;;;17.40;78.70;;;;;;4989737;28;20547;-57
2022/07/18 00:17:19;;;;;;;2.20;1.23;;;17.40;78.90;;;;;;4995729;28;20104;-56
2022/07/18 00:19:45;;;;;;;4.05;0.88;;;17.40;78.80;;;;;;4992918;28;20033;-56
2022/07/18 00:22:10;;;;;;;5.18;1.17;;;17.40;78.70;;;;;;4994116;28;20114;-57
2022/07/18 00:24:37;;;;;;;3.53;1.15;;;17.30;79.50;;;;;;4989529;28;20035;-57
2022/07/18 00:27:04;;;;;;;4.38;1.48;;;17.30;78.90;;;;;;4990854;28;20563;-56
2022/07/18 00:29:30;;;;;;;7.53;1.35;;;17.30;78.90;;;;;;4995564;28;20034;-55
2022/07/18 00:31:55;;;;;;;3.60;1.05;;;17.20;79.10;;;;;;4991896;28;20033;-57
2022/07/18 00:34:21;;;;;;;2.83;1.30;;;17.10;78.90;;;;;;4992822;28;20453;-56
2022/07/18 00:36:46;;;;;;;4.70;1.17;;;17.20;78.80;;;;;;4977679;28;20094;-53
2022/07/18 00:39:12;;;;;;;5.55;1.23;;;17.20;79.00;;;;;;5000759;28;20396;-55
2022/07/18 00:41:38;;;;;;;5.18;1.58;;;17.20;78.80;;;;;;4989723;28;20079;-55
2022/07/18 00:44:04;;;;;;;3.47;1.25;;;17.30;78.70;;;;;;4989186;28;20393;-56
2022/07/18 00:46:29;;;;;;;6.28;0.85;;;17.30;78.50;;;;;;4988989;28;20041;-53
2022/07/18 00:48:55;;;;;;;3.50;0.93;;;17.20;78.70;;;;;;4995231;28;20075;-57
2022/07/18 00:51:21;;;;;;;4.22;1.10;;;17.20;79.10;;;;;;4992823;28;20114;-56
2022/07/18 00:53:48;;;;;;;4.93;1.00;;;17.10;79.00;;;;;;4996140;28;20030;-56
2022/07/18 00:56:17;;;;;;;4.25;1.08;;;17.20;79.20;;;;;;4990458;28;20037;-54
2022/07/18 00:58:43;;;;;;;2.55;0.90;;;17.10;79.10;;;;;;4995748;28;20038;-57
2022/07/18 01:03:54;;;;;;;9.57;1.75;;;17.10;79.30;;;;;;4982661;28;20515;-57
2022/07/18 01:06:20;;;;;;;8.70;1.45;;;17.00;79.40;;;;;;4989971;28;20480;-56
2022/07/18 01:08:45;;;;;;;2.25;0.93;;;16.90;79.50;;;;;;4988703;28;20023;-55
2022/07/18 01:11:12;;;;;;;2.00;0.93;;;16.80;80.20;;;;;;4998538;28;20014;-57
2022/07/18 01:13:38;;;;;;;3.97;1.13;;;16.80;80.90;;;;;;4997397;28;20026;-57
2022/07/18 01:16:04;;;;;;;3.47;1.15;;;16.70;81.80;;;;;;4989798;28;20026;-57
2022/07/18 01:18:30;;;;;;;3.88;1.23;;;16.50;81.40;;;;;;4989141;28;20026;-56
2022/07/18 01:20:56;;;;;;;2.70;1.05;;;16.50;81.50;;;;;;4988268;28;20045;-57
2022/07/18 01:23:22;;;;;;;2.65;0.90;;;16.40;81.00;;;;;;4995923;28;20035;-57
2022/07/18 01:25:47;;;;;;;2.30;0.95;;;16.50;80.70;;;;;;4984854;28;20096;-56
2022/07/18 01:28:13;;;;;;;10.15;1.40;;;16.50;80.80;;;;;;4988711;28;20038;-57
2022/07/18 01:30:39;;;;;;;3.55;0.90;;;16.40;80.90;;;;;;5000884;28;20022;-57
2022/07/18 01:33:05;;;;;;;3.67;1.20;;;16.50;80.20;;;;;;5003450;28;20049;-56
2022/07/18 01:35:31;;;;;;;7.15;1.10;;;16.50;79.70;;;;;;4998393;28;20034;-56
2022/07/18 01:38:00;;;;;;;6.07;1.52;;;16.60;79.70;;;;;;4990132;28;20447;-56
2022/07/18 01:40:26;;;;;;;3.10;1.20;;;16.60;79.60;;;;;;4990880;28;20030;-56
2022/07/18 01:42:53;;;;;;;3.67;0.93;;;16.60;79.00;;;;;;4996347;28;20038;-53
2022/07/18 01:45:20;;;;;;;3.60;1.02;;;16.50;79.30;;;;;;4989077;28;20045;-56
2022/07/18 01:47:46;;;;;;;1.80;1.00;;;16.50;79.10;;;;;;4990093;28;20026;-53
2022/07/18 01:50:12;;;;;;;2.15;0.93;;;16.50;78.50;;;;;;4990850;28;20085;-57
2022/07/18 01:52:38;;;;;;;2.78;0.98;;;16.50;78.50;;;;;;5002457;28;20030;-56
2022/07/18 01:55:07;;;;;;;2.28;0.80;;;16.60;78.20;;;;;;4997396;28;20107;-57
2022/07/18 01:57:33;;;;;;;2.50;0.95;;;16.60;77.80;;;;;;5000199;28;20060;-56
2022/07/18 01:59:59;;;;;;;2.55;1.00;;;16.60;78.10;;;;;;4995690;28;20444;-57
2022/07/18 02:02:24;;;;;;;2.45;0.80;;;16.70;78.10;;;;;;5003702;28;20113;-56
2022/07/18 02:04:59;;;;;;;5.57;1.02;;;16.70;77.10;;;;;;4998334;28;20113;-58
2022/07/18 02:07:33;;;;;;;6.63;0.90;;;16.70;77.60;;;;;;5001684;28;20034;-57
2022/07/18 02:10:00;;;;;;;3.85;1.10;;;16.70;79.70;;;;;;4990298;28;20436;-56
2022/07/18 02:12:25;;;;;;;2.47;0.93;;;16.60;79.40;;;;;;4994008;28;20031;-55
2022/07/18 02:14:51;;;;;;;4.25;1.20;;;16.50;78.70;;;;;;4997983;28;20022;-57
2022/07/18 02:17:18;;;;;;;4.53;0.90;;;16.50;78.90;;;;;;5001461;28;20043;-57
2022/07/18 02:19:45;;;;;;;4.43;1.00;;;16.40;79.20;;;;;;4992588;28;20046;-56
2022/07/18 02:22:10;;;;;;;3.40;1.00;;;16.40;79.20;;;;;;4991937;28;20072;-56
2022/07/18 02:24:36;;;;;;;5.57;1.50;;;16.40;79.10;;;;;;4994920;28;20794;-55
2022/07/18 02:27:02;;;;;;;3.25;1.00;;;16.30;81.50;;;;;;4991769;28;20512;-54
2022/07/18 02:29:28;;;;;;;2.78;0.95;;;16.30;79.80;;;;;;5009630;28;20628;-56
2022/07/18 02:31:54;;;;;;;6.30;1.10;;;16.30;80.50;;;;;;4995080;28;20074;-57
2022/07/18 02:34:19;;;;;;;3.50;0.88;;;16.30;79.90;;;;;;5000110;28;20022;-56
2022/07/18 02:36:45;;;;;;;2.40;1.10;;;16.20;79.60;;;;;;5018335;22;20096;-59
2022/07/18 02:39:11;;;;;;;4.50;1.05;;;16.20;80.00;;;;;;5011569;28;20582;-57
2022/07/18 02:41:37;;;;;;;4.10;1.10;;;16.20;80.60;;;;;;5011288;28;20017;-56
2022/07/18 02:44:03;;;;;;;4.18;1.20;;;16.20;80.30;;;;;;5012539;28;20391;-58
2022/07/18 02:46:29;;;;;;;4.53;0.90;;;16.10;80.60;;;;;;5004357;28;20034;-59
2022/07/18 02:48:55;;;;;;;8.43;1.30;;;16.10;80.20;;;;;;5007806;28;20468;-59
2022/07/18 02:51:20;;;;;;;2.65;0.93;;;16.10;79.90;;;;;;5009314;28;20025;-56
2022/07/18 02:53:46;;;;;;;4.43;1.10;;;16.10;79.70;;;;;;5010948;28;20018;-59
2022/07/18 02:56:12;;;;;;;1.75;0.90;;;16.00;80.40;;;;;;5010114;28;20026;-56
2022/07/18 02:58:38;;;;;;;4.57;1.20;;;16.00;80.30;;;;;;5008012;28;20420;-57
2022/07/18 03:01:03;;;;;;;3.65;0.93;;;16.00;81.10;;;;;;5017526;28;20026;-59
2022/07/18 03:03:29;;;;;;;3.60;1.27;;;16.00;81.20;;;;;;5007282;28;20025;-59
2022/07/18 03:05:54;;;;;;;1.90;0.75;;;15.90;81.40;;;;;;5011437;28;20367;-58
2022/07/18 03:08:20;;;;;;;1.60;0.90;;;15.80;83.90;;;;;;5009339;28;20030;-53
2022/07/18 03:10:46;;;;;;;7.90;1.20;;;15.70;84.30;;;;;;5024237;28;20471;-60
2022/07/18 03:13:12;;;;;;;4.20;1.20;;;15.60;84.20;;;;;;5010617;28;20371;-60
2022/07/18 03:15:38;;;;;;;2.53;1.00;;;15.50;85.20;;;;;;5011546;28;20021;-58
2022/07/18 03:18:04;;;;;;;3.55;1.23;;;15.50;86.20;;;;;;5009672;28;20479;-57
2022/07/18 03:20:30;;;;;;;2.53;1.08;;;15.30;87.10;;;;;;5009491;28;20032;-59
2022/07/18 03:22:56;;;;;;;6.57;1.23;;;15.30;88.10;;;;;;5008712;28;20076;-59
2022/07/18 03:25:22;;;;;;;3.65;0.95;;;15.30;89.40;;;;;;5002601;28;20460;-58
2022/07/18 03:27:48;;;;;;;4.50;1.25;;;15.20;90.20;;;;;;5019475;28;20029;-60
2022/07/18 03:30:14;;;;;;;3.25;1.10;;;15.20;90.30;;;;;;5010818;28;20030;-58
2022/07/18 03:32:40;;;;;;;8.52;1.73;;;15.10;90.40;;;;;;5009773;28;20361;-57
2022/07/18 03:35:06;;;;;;;2.88;0.93;;;15.00;91.10;;;;;;5009383;28;20460;-58
2022/07/18 03:37:32;;;;;;;2.53;1.10;;;14.90;91.40;;;;;;5012165;28;20033;-57
2022/07/18 03:39:57;;;;;;;9.73;1.80;;;14.80;92.00;;;;;;5005080;28;20030;-59
2022/07/18 03:42:23;;;;;;;3.55;1.15;;;14.90;91.80;;;;;;5010281;28;20117;-58
2022/07/18 03:44:49;;;;;;;4.95;1.60;;;14.80;92.00;;;;;;5008455;28;20191;-59
2022/07/18 03:47:14;;;;;;;4.22;1.13;;;14.80;92.00;;;;;;5009427;28;20029;-56
2022/07/18 03:49:40;;;;;;;5.30;1.35;;;14.80;92.30;;;;;;5009138;28;20025;-58
2022/07/18 03:52:06;;;;;;;2.17;1.00;;;14.80;92.50;;;;;;5003653;28;20026;-57
2022/07/18 03:54:31;;;;;;;7.10;1.30;;;14.80;92.70;;;;;;5010749;28;20340;-57
2022/07/18 03:56:57;;;;;;;6.10;1.15;;;14.90;92.50;;;;;;5006780;28;20023;-58
2022/07/18 03:59:23;;;;;;;5.38;1.83;;;14.90;92.80;;;;;;5009027;28;20026;-57
2022/07/18 04:01:48;;;;;;;2.35;1.08;;;14.90;92.60;;;;;;5009026;28;20026;-58
2022/07/18 04:04:14;;;;;;;2.75;1.05;;;15.00;92.40;;;;;;5010193;28;20034;-59
2022/07/18 04:06:40;;;;;;;5.00;2.58;;;15.00;92.90;;;;;;5002694;28;20459;-58
2022/07/18 04:09:05;;;;;;;2.85;1.35;;;15.10;92.80;;;;;;4990496;28;20416;-56
2022/07/18 04:11:31;;;;;;;3.22;1.08;;;15.20;92.70;;;;;;5007038;28;20101;-57
2022/07/18 04:13:57;;;;;;;3.67;1.42;;;15.20;92.80;;;;;;5011350;28;20594;-57
2022/07/18 04:16:23;;;;;;;2.65;1.23;;;15.20;92.80;;;;;;5008070;28;20053;-59
2022/07/18 04:18:49;;;;;;;3.08;1.10;;;15.30;92.70;;;;;;5001401;28;20028;-59
2022/07/18 04:21:15;;;;;;;7.35;1.50;;;15.40;92.60;;;;;;5012796;28;20034;-59
2022/07/18 04:23:41;;;;;;;3.53;1.17;;;15.40;92.40;;;;;;5010911;28;20022;-59
2022/07/18 04:26:07;;;;;;;3.00;1.10;;;15.50;92.60;;;;;;5015946;28;20026;-58
2022/07/18 04:28:33;;;;;;;4.03;1.10;;;15.50;92.20;;;;;;5012864;28;20570;-57
2022/07/18 04:30:59;;;;;;;3.97;1.70;;;15.60;92.20;;;;;;5013755;28;20022;-58
2022/07/18 04:33:24;;;;;;;5.95;1.20;;;15.50;92.20;;;;;;5008690;28;20026;-58
2022/07/18 04:35:50;;;;;;;3.17;1.17;;;15.60;92.20;;;;;;5009936;28;20053;-58
2022/07/18 04:38:16;;;;;;;2.85;1.20;;;15.70;92.10;;;;;;5015917;28;20579;-59
2022/07/18 04:40:41;;;;;;;4.93;1.30;;;15.80;92.30;;;;;;5008684;28;20392;-60
2022/07/18 04:43:07;;;;;;;4.15;1.17;;;16.40;91.10;;;;;;5005711;28;20026;-60
2022/07/18 04:45:34;;;;;;;2.75;1.30;;;17.40;89.30;;;;;;5009168;28;20507;-60
2022/07/18 04:48:00;;;;;;;4.00;1.10;;;18.60;85.30;;;;;;5010219;28;20502;-60
2022/07/18 04:50:26;;;;;;;5.32;1.67;;;19.60;80.40;;;;;;5007767;28;20018;-60
2022/07/18 04:52:52;;;;;;;5.60;1.60;;;20.60;77.10;;;;;;5004425;28;20438;-60
2022/07/18 04:55:21;;;;;;;2.30;1.33;;;21.30;75.00;;;;;;5008612;28;20129;-59
2022/07/18 04:57:47;;;;;;;2.63;1.08;;;22.10;72.20;;;;;;5010351;28;20036;-59
2022/07/18 05:00:16;;;;;;;4.50;1.40;;;22.60;71.60;;;;;;5011570;28;20445;-58
2022/07/18 05:02:43;;;;;;;2.25;1.20;;;23.10;69.80;;;;;;5004623;28;20125;-60
2022/07/18 05:05:10;;;;;;;3.00;1.30;;;23.60;66.70;;;;;;5015360;28;20479;-59
2022/07/18 05:07:37;;;;;;;2.15;1.13;;;23.80;65.30;;;;;;4993571;28;20097;-59
2022/07/18 05:10:07;;;;;;;6.38;1.30;;;23.30;66.30;;;;;;5014356;28;20506;-58
2022/07/18 05:12:33;;;;;;;9.77;1.27;;;24.00;65.70;;;;;;5004601;28;20399;-58
2022/07/18 05:14:59;;;;;;;3.80;1.10;;;24.20;65.50;;;;;;5009871;28;20018;-58
2022/07/18 05:17:24;;;;;;;2.25;1.20;;;25.10;63.60;;;;;;5009134;28;20047;-60
2022/07/18 05:19:50;;;;;;;2.17;1.10;;;26.00;62.40;;;;;;5009731;28;20025;-60
2022/07/18 05:22:16;;;;;;;3.58;1.50;;;26.30;61.00;;;;;;5011076;28;20073;-59
2022/07/18 05:24:41;;;;;;;4.22;1.10;;;26.50;60.20;;;;;;5007535;28;20011;-60
2022/07/18 05:27:07;;;;;;;3.60;1.20;;;26.90;59.90;;;;;;5009374;28;20062;-58
2022/07/18 05:29:32;;;;;;;4.60;1.23;;;27.20;58.60;;;;;;5022211;28;20093;-60
2022/07/18 05:31:59;;;;;;;1.95;1.15;;;27.50;58.90;;;;;;5016864;28;20045;-60
2022/07/18 05:34:24;;;;;;;3.10;1.30;;;27.60;57.50;;;;;;5007434;28;20026;-60
2022/07/18 05:36:50;;;;;;;3.25;1.00;;;28.00;57.20;;;;;;5012196;28;20038;-59
2022/07/18 05:39:16;;;;;;;3.95;1.45;;;28.50;56.30;;;;;;5013246;28;20062;-55
2022/07/18 05:41:41;;;;;;;4.18;1.00;;;28.50;56.40;;;;;;5032032;28;20517;-60
2022/07/18 05:44:07;;;;;;;8.05;1.75;;;28.40;56.40;;;;;;5007976;28;20037;-60
2022/07/18 05:46:32;;;;;;;4.38;0.90;;;28.70;56.60;;;;;;5008723;28;20022;-59
2022/07/18 05:48:58;;;;;;;1.67;0.73;;;28.20;56.70;;;;;;5012759;28;20022;-61
2022/07/18 05:51:24;;;;;;;5.45;1.13;;;28.70;56.90;;;;;;5012919;28;20381;-59
2022/07/18 05:53:50;;;;;;;3.40;1.00;;;28.60;56.60;;;;;;5008066;28;20045;-60
2022/07/18 05:56:15;;;;;;;5.00;1.40;;;29.00;55.90;;;;;;5028492;28;20035;-60
2022/07/18 05:58:41;;;;;;;3.47;1.17;;;29.30;55.50;;;;;;5014584;28;20029;-59
2022/07/18 06:01:07;;;;;;;5.55;1.08;;;29.40;56.80;;;;;;5012925;28;20026;-59
2022/07/18 06:03:32;;;;;;;7.82;1.33;;;30.30;54.60;;;;;;5010369;28;20022;-56
2022/07/18 06:05:58;;;;;;;4.38;1.40;;;29.70;53.50;;;;;;5017648;28;20446;-60
2022/07/18 06:08:24;;;;;;;2.63;1.13;;;29.70;52.80;;;;;;4997274;28;20504;-61
2022/07/18 06:10:49;;;;;;;2.72;1.13;;;30.00;53.00;;;;;;5025257;28;20109;-61
2022/07/18 06:13:15;;;;;;;1.85;1.15;;;30.70;52.70;;;;;;5021592;28;20124;-60
2022/07/18 06:15:41;;;;;;;2.85;1.25;;;31.00;52.10;;;;;;5005401;28;20045;-55
2022/07/18 06:18:06;;;;;;;2.53;1.00;;;31.10;52.70;;;;;;5010778;28;20026;-61
2022/07/18 06:20:32;;;;;;;1.35;1.00;;;31.10;51.80;;;;;;5012215;28;20034;-61
2022/07/18 06:22:57;;;;;;;5.40;1.23;;;31.50;50.70;;;;;;5011421;28;20105;-60
2022/07/18 06:25:23;;;;;;;3.47;1.33;;;31.50;50.90;;;;;;5006609;28;20040;-61
2022/07/18 06:27:49;;;;;;;4.97;1.20;;;32.20;50.80;;;;;;5007582;28;20100;-61
2022/07/18 06:30:14;;;;;;;1.95;0.98;;;32.70;49.80;;;;;;5009229;28;20034;-62
2022/07/18 06:32:40;;;;;;;2.95;1.30;;;33.20;47.20;;;;;;5012304;28;20026;-61
2022/07/18 06:35:07;;;;;;;3.08;1.23;;;33.00;47.20;;;;;;5011232;28;20029;-61
2022/07/18 06:37:32;;;;;;;6.30;1.20;;;32.10;47.70;;;;;;5012785;28;20087;-60
2022/07/18 06:39:58;;;;;;;2.58;0.95;;;32.70;48.60;;;;;;5020692;28;20483;-60
2022/07/18 06:42:24;;;;;;;2.90;1.00;;;33.20;49.00;;;;;;5003582;28;20023;-61
2022/07/18 06:44:49;;;;;;;5.60;1.05;;;33.10;47.80;;;;;;5010215;28;20213;-62
2022/07/18 06:47:15;;;;;;;4.80;1.30;;;32.50;47.40;;;;;;5012535;28;20034;-62
2022/07/18 06:49:40;;;;;;;5.00;0.90;;;33.40;48.00;;;;;;5010980;28;20037;-60
2022/07/18 06:52:07;;;;;;;3.03;1.13;;;33.10;46.40;;;;;;5005251;28;20026;-61
2022/07/18 06:54:35;;;;;;;3.80;1.30;;;32.80;49.20;;;;;;5009724;28;20029;-59
2022/07/18 06:57:03;;;;;;;2.67;1.00;;;32.80;47.70;;;;;;5011314;28;20026;-59
2022/07/18 06:59:28;;;;;;;6.85;1.17;;;32.70;47.90;;;;;;5012805;28;20042;-61
2022/07/18 07:01:54;;;;;;;3.05;1.33;;;32.50;47.70;;;;;;5002293;28;20030;-61
2022/07/18 07:04:20;;;;;;;3.10;1.40;;;32.90;48.10;;;;;;5006919;28;20042;-60
2022/07/18 07:06:45;;;;;;;7.03;1.52;;;33.70;47.50;;;;;;5007893;28;20038;-61
2022/07/18 07:09:11;;;;;;;1.58;1.00;;;34.80;46.30;;;;;;4987879;28;20129;-60
2022/07/18 07:11:37;;;;;;;4.30;1.13;;;34.50;47.10;;;;;;5015415;28;20053;-61
2022/07/18 07:14:02;;;;;;;2.22;0.95;;;34.90;46.80;;;;;;5005511;28;20038;-61
2022/07/18 07:16:28;;;;;;;4.35;1.05;;;35.40;44.90;;;;;;5017374;28;20109;-61
2022/07/18 07:18:54;;;;;;;1.58;1.00;;;36.10;45.70;;;;;;5013585;28;20041;-61
2022/07/18 07:21:19;;;;;;;7.55;1.00;;;36.40;45.30;;;;;;5005623;28;20026;-60
2022/07/18 07:23:45;;;;;;;3.70;0.95;;;36.10;44.50;;;;;;5007108;28;20053;-61
2022/07/18 07:26:10;;;;;;;2.08;1.17;;;35.40;45.00;;;;;;5009175;28;20029;-62
2022/07/18 07:28:36;;;;;;;2.83;1.15;;;35.70;44.70;;;;;;5010225;28;20038;-61
2022/07/18 07:31:02;;;;;;;7.43;1.20;;;35.90;44.30;;;;;;5014051;28;20077;-61
2022/07/18 07:33:27;;;;;;;2.17;1.00;;;35.70;45.20;;;;;;5010153;28;20416;-56
2022/07/18 07:35:53;;;;;;;2.60;1.17;;;36.00;45.10;;;;;;5009624;28;20049;-62
2022/07/18 07:38:19;;;;;;;5.20;1.17;;;36.50;44.60;;;;;;5011483;28;20443;-61
2022/07/18 07:40:47;;;;;;;5.82;1.20;;;36.80;43.60;;;;;;5003643;28;20117;-61
2022/07/18 07:43:14;;;;;;;2.05;1.17;;;37.10;44.80;;;;;;5006545;28;20026;-62
2022/07/18 07:45:40;;;;;;;2.88;1.15;;;37.50;44.20;;;;;;5006903;28;20108;-61
2022/07/18 07:48:07;;;;;;;2.40;1.33;;;37.80;44.70;;;;;;5011170;28;20034;-62
2022/07/18 07:50:33;;;;;;;2.90;1.35;;;37.90;42.40;;;;;;5017058;28;20037;-61
2022/07/18 07:52:59;;;;;;;2.63;1.33;;;37.70;42.80;;;;;;5006367;28;20061;-61
2022/07/18 07:55:26;;;;;;;2.08;1.00;;;38.20;42.90;;;;;;5016723;28;20030;-61
2022/07/18 07:57:51;;;;;;;2.80;1.50;;;37.60;41.90;;;;;;5010714;28;20033;-62
2022/07/18 08:00:17;;;;;;;4.05;1.30;;;38.50;42.20;;;;;;5011886;28;20160;-62
2022/07/18 08:02:55;;;;;;;3.65;1.48;;;38.10;41.20;;;;;;5008547;28;20069;-61
2022/07/18 08:05:21;;;;;;;6.22;1.25;;;38.00;41.90;;;;;;5011614;28;20336;-62
2022/07/18 08:07:47;;;;;;;2.97;1.00;;;38.00;42.20;;;;;;4992085;28;20026;-61
2022/07/18 08:10:13;;;;;;;3.42;1.10;;;38.30;40.60;;;;;;5008497;28;20034;-60
2022/07/18 08:12:39;;;;;;;4.97;1.13;;;38.30;41.90;;;;;;5002539;28;20037;-61
2022/07/18 08:15:05;;;;;;;1.83;0.90;;;38.60;41.20;;;;;;5008923;28;20026;-61
2022/07/18 08:17:31;;;;;;;6.47;1.30;;;39.00;41.10;;;;;;5010286;28;20034;-61
2022/07/18 08:19:58;;;;;;;4.70;1.15;;;38.30;41.20;;;;;;5015225;28;20561;-61
2022/07/18 08:22:23;;;;;;;2.65;1.30;;;38.30;40.80;;;;;;5007226;28;20030;-62
2022/07/18 08:24:49;;;;;;;2.80;1.10;;;38.60;41.00;;;;;;5007636;28;20085;-62
2022/07/18 08:27:15;;;;;;;3.15;1.20;;;38.40;41.90;;;;;;5009553;28;20036;-61
2022/07/18 08:29:41;;;;;;;2.53;1.10;;;37.70;41.00;;;;;;5011347;28;20025;-62
2022/07/18 08:32:08;;;;;;;5.18;1.40;;;37.10;41.00;;;;;;5003211;28;20040;-62
2022/07/18 08:34:33;;;;;;;3.92;1.15;;;37.90;41.60;;;;;;5009175;28;20034;-61
2022/07/18 08:36:59;;;;;;;4.55;1.30;;;38.30;40.60;;;;;;5009381;28;20093;-61
2022/07/18 08:39:25;;;;;;;3.22;1.20;;;38.70;41.50;;;;;;5001121;28;20492;-62
2022/07/18 08:41:51;;;;;;;3.72;0.95;;;38.80;40.90;;;;;;5004733;28;20112;-62
2022/07/18 08:44:18;;;;;;;7.43;1.58;;;39.50;39.30;;;;;;5030666;22;20503;-59
2022/07/18 08:46:51;;;;;;;2.30;1.20;;;38.80;40.10;;;;;;5025850;28;20033;-58
2022/07/18 08:49:17;;;;;;;2.78;1.15;;;39.20;40.20;;;;;;5029637;28;20483;-59
2022/07/18 08:51:43;;;;;;;1.88;1.10;;;39.10;40.00;;;;;;5029334;28;20025;-58
2022/07/18 08:54:09;;;;;;;3.63;1.63;;;37.90;39.90;;;;;;5013383;28;20022;-56
2022/07/18 08:56:35;;;;;;;9.45;1.40;;;38.60;40.20;;;;;;5011845;28;20028;-58
2022/07/18 08:59:02;;;;;;;6.07;1.65;;;38.40;40.00;;;;;;5002526;28;20033;-58
2022/07/18 09:01:31;;;;;;;3.53;1.40;;;38.80;40.60;;;;;;4999244;28;20022;-59
2022/07/18 09:04:17;;;;;;;4.95;1.10;;;38.20;40.80;;;;;;5000631;28;20026;-57
2022/07/18 09:06:50;;;;;;;2.15;1.20;;;37.80;42.10;;;;;;5003453;28;20119;-59
2022/07/18 09:09:17;;;;;;;1.58;1.13;;;37.80;41.00;;;;;;4982347;28;20030;-56
2022/07/18 09:11:57;;;;;;;4.60;1.45;;;37.70;41.10;;;;;;5017245;28;20100;-59
2022/07/18 09:14:39;;;;;;;5.22;1.27;;;37.80;41.90;;;;;;5013834;28;20498;-59
2022/07/18 09:17:09;;;;;;;4.25;1.40;;;38.00;41.10;;;;;;5012247;28;20530;-55
2022/07/18 09:19:37;;;;;;;4.70;1.35;;;38.00;41.70;;;;;;5009257;28;20030;-59
2022/07/18 09:22:13;;;;;;;3.08;1.25;;;38.30;40.70;;;;;;5010146;28;20027;-57
2022/07/18 09:25:09;;;;;;;3.58;1.52;;;38.60;39.50;;;;;;5012919;28;20382;-56
2022/07/18 09:27:48;;;;;;;2.42;1.10;;;37.90;40.60;;;;;;5008472;28;20034;-60
2022/07/18 09:30:20;;;;;;;4.95;1.27;;;38.80;41.00;;;;;;5009957;28;20052;-58
2022/07/18 09:33:04;;;;;;;5.07;1.55;;;38.60;39.70;;;;;;5006798;28;20022;-59
2022/07/18 09:35:51;;;;;;;5.43;1.10;;;39.00;39.30;;;;;;5012103;28;20048;-59
2022/07/18 09:38:20;;;;;;;1.52;1.15;;;39.00;40.00;;;;;;5005542;28;20038;-59
2022/07/18 09:40:57;;;;;;;4.22;1.15;;;39.60;39.30;;;;;;5013125;28;20132;-59
2022/07/18 09:43:24;;;;;;;5.72;1.55;;;39.10;38.70;;;;;;5010515;28;20491;-59
2022/07/18 09:45:51;;;;;;;3.92;0.93;;;38.10;38.90;;;;;;5010641;28;20251;-60
2022/07/18 09:48:19;;;;;;;5.97;1.40;;;37.90;38.90;;;;;;5004535;28;20029;-59
2022/07/18 09:50:53;;;;;;;2.50;1.30;;;37.40;38.40;;;;;;5006498;28;20635;-59
2022/07/18 09:53:26;;;;;;;4.20;1.05;;;37.50;39.40;;;;;;5007837;28;20488;-58
2022/07/18 09:55:57;;;;;;;2.13;0.90;;;38.10;39.80;;;;;;4999175;28;20034;-57
2022/07/18 09:58:25;;;;;;;3.50;1.17;;;39.40;38.70;;;;;;5014339;28;20038;-59
2022/07/18 10:00:52;;;;;;;2.45;1.20;;;39.60;38.40;;;;;;5010248;28;20462;-58
2022/07/18 10:03:19;;;;;;;5.10;1.17;;;38.70;36.70;;;;;;5012641;28;20112;-57
2022/07/18 10:05:46;;;;;;;5.68;1.02;;;38.10;37.80;;;;;;5005958;28;20038;-59
2022/07/18 10:08:16;;;;;;;2.85;1.27;;;38.20;37.70;;;;;;4987816;28;20404;-59
2022/07/18 10:10:44;;;;;;;3.83;1.00;;;37.90;38.80;;;;;;5012338;28;20064;-57
2022/07/18 10:13:10;;;;;;;6.45;1.40;;;38.30;40.00;;;;;;5006932;28;20500;-58
2022/07/18 10:15:41;;;;;;;3.97;1.25;;;37.80;37.40;;;;;;5010322;28;20042;-57
2022/07/18 10:18:09;;;;;;;4.07;1.17;;;37.10;37.60;;;;;;5019166;28;20061;-57
2022/07/18 10:20:37;;;;;;;6.03;1.05;;;36.60;38.70;;;;;;5002510;28;20559;-55
2022/07/18 10:23:16;;;;;;;2.20;1.02;;;36.10;38.90;;;;;;5010752;28;20385;-57
2022/07/18 10:25:42;;;;;;;4.05;1.10;;;36.30;39.80;;;;;;5007471;28;20026;-58
2022/07/18 10:28:13;;;;;;;6.35;1.17;;;36.20;39.80;;;;;;5010757;28;20400;-59
2022/07/18 10:30:43;;;;;;;1.75;1.00;;;35.70;39.70;;;;;;4999216;28;20026;-58
2022/07/18 10:33:45;;;;;;;2.55;1.20;;;35.70;39.20;;;;;;5005996;28;20022;-59
2022/07/18 10:36:19;;;;;;;3.13;1.20;;;35.70;39.50;;;;;;5010987;28;20056;-59
2022/07/18 10:39:08;;;;;;;3.53;0.98;;;35.70;38.90;;;;;;5010598;28;20039;-59
2022/07/18 10:41:54;;;;;;;4.85;1.15;;;35.50;39.50;;;;;;5009336;28;20049;-57
2022/07/18 10:44:29;;;;;;;4.53;1.23;;;35.10;40.30;;;;;;4954240;28;1075949;-59
2022/07/18 10:47:04;;;;;;;3.58;1.00;;;34.90;40.40;;;;;;5010254;28;20324;-59
2022/07/18 10:49:48;;;;;;;1.38;1.00;;;35.10;39.50;;;;;;5012272;28;20063;-59
2022/07/18 10:52:26;;;;;;;4.82;1.13;;;34.90;38.80;;;;;;5007825;28;20026;-59
2022/07/18 10:55:04;;;;;;;3.03;1.10;;;34.60;40.70;;;;;;5009948;28;20025;-58
2022/07/18 10:57:55;;;;;;;10.32;2.08;;;34.30;40.30;;;;;;5012182;28;20581;-57
2022/07/18 11:00:24;;;;;;;4.18;1.25;;;34.00;41.40;;;;;;5012166;28;20033;-57
2022/07/18 11:03:07;;;;;;;2.85;1.13;;;34.00;40.40;;;;;;5010821;28;20180;-57
2022/07/18 11:05:33;;;;;;;8.60;1.20;;;34.10;41.90;;;;;;5014194;28;20116;-58
2022/07/18 11:08:02;;;;;;;4.90;1.20;;;34.00;42.50;;;;;;5017158;28;20053;-56
2022/07/18 11:10:43;;;;;;;6.13;1.20;;;33.80;41.60;;;;;;4989222;28;20072;-59
2022/07/18 11:13:27;;;;;;;1.20;0.98;;;33.60;41.50;;;;;;5012149;28;20037;-59
2022/07/18 11:16:07;;;;;;;4.85;1.33;;;33.70;42.60;;;;;;5005987;28;20442;-59
2022/07/18 11:18:39;;;;;;;6.40;1.10;;;33.90;42.20;;;;;;4998396;28;20136;-58
2022/07/18 11:21:16;;;;;;;5.88;1.25;;;34.00;42.10;;;;;;5009850;28;20034;-56
2022/07/18 11:23:43;;;;;;;2.00;0.95;;;34.20;42.00;;;;;;4998662;28;20032;-58
2022/07/18 11:26:17;;;;;;;3.40;1.30;;;34.00;41.70;;;;;;5011021;28;20030;-58
2022/07/18 11:28:43;;;;;;;4.07;1.30;;;33.80;42.40;;;;;;5010202;28;20058;-56
2022/07/18 11:31:11;;;;;;;3.53;1.08;;;33.80;41.20;;;;;;5011378;28;20062;-58
2022/07/18 11:33:39;;;;;;;6.95;1.40;;;34.00;43.40;;;;;;5009572;28;20026;-58
2022/07/18 11:36:10;;;;;;;3.70;1.00;;;34.10;42.40;;;;;;5009511;28;20499;-58
2022/07/18 11:38:37;;;;;;;3.05;1.10;;;34.00;41.70;;;;;;5010017;28;20037;-58
2022/07/18 11:41:04;;;;;;;2.13;0.95;;;33.70;40.90;;;;;;5002805;28;20022;-57
2022/07/18 11:43:30;;;;;;;7.32;1.77;;;33.70;41.30;;;;;;5006123;28;20149;-56
2022/07/18 11:46:09;;;;;;;4.22;1.35;;;33.60;43.50;;;;;;5017519;28;20029;-56
2022/07/18 11:48:36;;;;;;;4.20;0.98;;;33.80;41.90;;;;;;5010974;28;20571;-54
2022/07/18 11:51:08;;;;;;;11.52;1.45;;;33.80;42.80;;;;;;5006771;28;20034;-56
2022/07/18 11:53:34;;;;;;;1.80;1.35;;;33.80;42.10;;;;;;5006643;28;20026;-57
2022/07/18 11:56:04;;;;;;;4.80;1.02;;;33.80;42.20;;;;;;5012816;28;20095;-58
2022/07/18 11:58:38;;;;;;;2.67;1.23;;;33.50;41.10;;;;;;5016426;28;20040;-57
2022/07/18 12:01:04;;;;;;;1.98;0.80;;;33.60;41.60;;;;;;5010559;28;20113;-58
2022/07/18 12:03:30;;;;;;;1.88;1.17;;;33.80;41.50;;;;;;5008377;28;20034;-58
2022/07/18 12:05:56;;;;;;;6.82;1.17;;;33.90;42.00;;;;;;5009449;28;20026;-59
2022/07/18 12:08:29;;;;;;;3.22;1.25;;;33.90;41.80;;;;;;5002971;28;20044;-57
2022/07/18 12:11:08;;;;;;;5.68;1.30;;;33.70;41.40;;;;;;5000468;28;20044;-56
2022/07/18 12:14:12;;;;;;;2.22;1.00;;;33.60;42.60;;;;;;5008769;28;20395;-59
2022/07/18 12:16:41;;;;;;;4.15;1.95;;;33.40;41.40;;;;;;4978020;28;20625;-57
2022/07/18 12:19:10;;;;;;;2.65;1.20;;;33.00;41.20;;;;;;5007293;28;20104;-60
2022/07/18 12:21:48;;;;;;;6.38;1.20;;;32.90;42.00;;;;;;5010684;28;20032;-59
2022/07/18 12:24:18;;;;;;;3.50;1.40;;;32.80;42.60;;;;;;5008495;28;20026;-57
2022/07/18 12:26:44;;;;;;;3.53;1.38;;;33.00;43.30;;;;;;5010818;28;20029;-58
2022/07/18 12:29:09;;;;;;;3.67;1.20;;;33.20;43.00;;;;;;5005887;28;20059;-58
2022/07/18 12:31:43;;;;;;;3.90;1.40;;;33.00;44.60;;;;;;5005152;28;20266;-58
2022/07/18 12:34:11;;;;;;;1.67;1.00;;;33.10;41.90;;;;;;5012202;28;20108;-60
2022/07/18 12:36:57;;;;;;;2.78;1.23;;;33.10;44.00;;;;;;5010554;28;20061;-58
2022/07/18 12:39:33;;;;;;;4.47;1.02;;;33.00;46.10;;;;;;5008635;28;20151;-59
2022/07/18 12:42:00;;;;;;;4.88;1.20;;;33.20;42.40;;;;;;5006093;28;20096;-59
2022/07/18 12:44:27;;;;;;;3.25;1.15;;;33.20;43.70;;;;;;5006514;28;20042;-55
2022/07/18 12:46:54;;;;;;;5.38;1.10;;;33.40;42.10;;;;;;5008935;28;20038;-57
2022/07/18 12:49:20;;;;;;;1.92;1.15;;;33.40;41.80;;;;;;5009903;28;20113;-58
2022/07/18 12:51:47;;;;;;;2.47;1.42;;;33.40;41.40;;;;;;5006774;28;20030;-58